Time;durP1;ratioP1;P1;durP2;ratioP2;P2;SDS_P1;SDS_P2;PMS_P1;PMS_P2;Temp;Humidity;BMP_temperature;BMP_pressure;BME280_temperature;BME280_humidity;BME280_pressure;Samples;Min_cycle;Max_cycle;Signal;HPM_P1;HPM_P2
2024/02/18 00:01:43;;;;;;;1.40;0.80;;;;;;;9.02;76.60;102858.97;6097593;23;20188;-66
2024/02/18 00:04:12;;;;;;;1.65;0.80;;;;;;;8.64;73.58;102865.25;6098079;23;20171;-67
2024/02/18 00:06:42;;;;;;;1.15;0.80;;;;;;;8.50;79.93;102870.22;6097389;23;20156;-64
2024/02/18 00:09:12;;;;;;;1.30;0.95;;;;;;;7.96;74.55;102871.50;6097426;23;20206;-70
2024/02/18 00:11:43;;;;;;;1.38;0.70;;;;;;;8.17;76.89;102868.72;6098121;23;20636;-66
2024/02/18 00:14:12;;;;;;;0.90;0.60;;;;;;;7.93;76.39;102866.38;6097768;23;20240;-66
2024/02/18 00:16:43;;;;;;;0.80;0.50;;;;;;;8.04;79.75;102866.25;6097666;23;20168;-66
2024/02/18 00:19:12;;;;;;;1.13;0.95;;;;;;;8.11;81.29;102864.72;6098209;23;20194;-68
2024/02/18 00:21:41;;;;;;;1.70;0.60;;;;;;;8.81;80.25;102870.94;6098271;23;20636;-66
2024/02/18 00:24:10;;;;;;;0.90;0.70;;;;;;;9.74;77.52;102862.88;6097475;23;20616;-67
2024/02/18 00:26:39;;;;;;;0.80;0.50;;;;;;;9.75;73.64;102864.59;6097442;23;20392;-66
2024/02/18 00:29:25;;;;;;;1.47;1.10;;;;;;;9.73;74.78;102864.72;6071492;23;20523;-67
2024/02/18 00:31:56;;;;;;;2.03;0.90;;;;;;;10.16;73.32;102872.25;6097434;23;20376;-66
2024/02/18 00:34:27;;;;;;;0.90;0.60;;;;;;;10.44;74.62;102856.81;6097491;23;20420;-67
2024/02/18 00:36:56;;;;;;;3.53;0.90;;;;;;;10.41;70.91;102862.50;6097439;23;20564;-66
2024/02/18 00:39:26;;;;;;;2.83;0.80;;;;;;;10.53;69.27;102860.44;6097147;23;20413;-67
2024/02/18 00:41:55;;;;;;;2.93;1.00;;;;;;;10.42;68.70;102864.22;6097279;23;20466;-67
2024/02/18 00:44:24;;;;;;;1.30;1.20;;;;;;;10.17;70.63;102856.84;6097155;23;20372;-65
2024/02/18 00:46:53;;;;;;;1.07;0.73;;;;;;;10.43;70.54;102855.97;6097362;23;20392;-66
2024/02/18 00:49:34;;;;;;;0.97;0.80;;;;;;;9.49;69.67;102848.16;6097589;23;20400;-66
2024/02/18 00:52:04;;;;;;;1.23;1.10;;;;;;;9.23;72.86;102847.13;6097072;23;20347;-68
2024/02/18 00:54:34;;;;;;;2.90;0.80;;;;;;;9.14;71.70;102841.63;6096825;23;20346;-67
2024/02/18 00:57:03;;;;;;;1.65;1.10;;;;;;;8.85;75.30;102838.13;6096810;23;20472;-66
2024/02/18 00:59:31;;;;;;;0.90;0.70;;;;;;;10.45;81.05;102848.53;6096702;23;20183;-66
2024/02/18 01:02:00;;;;;;;9.30;1.30;;;;;;;11.95;72.11;102850.13;6096830;23;20351;-66
2024/02/18 01:04:29;;;;;;;4.30;0.90;;;;;;;12.06;70.88;102855.22;6097037;23;20351;-67
2024/02/18 01:06:59;;;;;;;0.90;0.70;;;;;;;12.05;66.14;102850.81;6096934;23;20396;-66
2024/02/18 01:09:28;;;;;;;1.20;1.00;;;;;;;11.40;69.62;102845.06;6096687;23;20487;-66
2024/02/18 01:11:57;;;;;;;1.50;1.00;;;;;;;11.77;67.26;102845.63;6096774;23;20355;-66
2024/02/18 01:14:26;;;;;;;1.47;0.90;;;;;;;11.63;66.20;102839.91;6097126;23;20379;-67
2024/02/18 01:16:57;;;;;;;0.90;0.60;;;;;;;11.22;66.12;102838.84;6096778;23;20386;-67
2024/02/18 01:19:26;;;;;;;1.67;0.87;;;;;;;11.38;71.94;102836.22;6097238;23;20499;-67
2024/02/18 01:21:55;;;;;;;3.27;1.60;;;;;;;12.15;69.84;102836.06;6097538;23;20879;-71
2024/02/18 01:24:25;;;;;;;2.33;1.17;;;;;;;12.02;64.77;102834.84;6097491;23;20738;-67
2024/02/18 01:26:54;;;;;;;9.90;2.43;;;;;;;11.79;64.93;102831.91;6097917;23;20347;-68
2024/02/18 01:29:24;;;;;;;3.23;0.90;;;;;;;11.05;60.89;102820.75;6097461;23;20463;-64
2024/02/18 01:31:53;;;;;;;1.37;1.00;;;;;;;10.34;67.77;102823.56;6096537;23;20457;-67
2024/02/18 01:34:22;;;;;;;1.50;0.77;;;;;;;10.29;74.33;102821.31;6097231;23;20382;-66
2024/02/18 01:36:51;;;;;;;1.20;0.80;;;;;;;10.51;70.10;102832.66;6096628;23;20473;-67
2024/02/18 01:39:20;;;;;;;1.17;1.07;;;;;;;10.45;73.75;102823.34;6096930;23;20389;-67
2024/02/18 01:41:50;;;;;;;1.20;0.87;;;;;;;10.32;69.51;102825.56;6071939;23;20407;-67
2024/02/18 01:44:20;;;;;;;1.30;0.80;;;;;;;11.27;71.97;102828.38;6097186;23;20430;-67
2024/02/18 01:46:49;;;;;;;1.50;1.40;;;;;;;11.76;65.14;102827.63;6096798;23;20391;-65
2024/02/18 01:49:18;;;;;;;3.00;1.30;;;;;;;11.44;71.41;102829.31;6096177;23;20398;-65
2024/02/18 01:51:48;;;;;;;1.57;0.93;;;;;;;10.40;61.84;102828.34;6097051;23;20373;-67
2024/02/18 01:54:18;;;;;;;1.20;0.90;;;;;;;10.36;71.26;102824.25;6097181;23;20407;-67
2024/02/18 01:56:49;;;;;;;1.03;0.93;;;;;;;10.57;69.30;102830.19;6096886;23;20481;-66
2024/02/18 01:59:19;;;;;;;1.20;0.90;;;;;;;9.84;66.24;102825.81;6097266;23;20411;-66
2024/02/18 02:01:48;;;;;;;1.10;0.80;;;;;;;10.77;71.65;102831.75;6097518;23;20561;-67
2024/02/18 02:04:17;;;;;;;1.10;0.70;;;;;;;11.13;65.87;102839.81;6097158;23;20446;-66
2024/02/18 02:06:49;;;;;;;1.67;1.10;;;;;;;10.30;67.07;102833.00;6097329;23;20358;-65
2024/02/18 02:09:18;;;;;;;1.80;1.03;;;;;;;10.17;68.01;102830.63;6096105;23;20481;-66
2024/02/18 02:11:49;;;;;;;1.73;1.13;;;;;;;10.75;71.73;102841.00;6097466;23;20355;-66
2024/02/18 02:14:19;;;;;;;1.00;0.73;;;;;;;10.74;66.70;102836.63;6097513;23;20346;-68
2024/02/18 02:16:48;;;;;;;3.87;1.00;;;;;;;10.64;69.31;102825.88;6097265;23;20406;-67
2024/02/18 02:19:17;;;;;;;0.97;0.67;;;;;;;10.67;68.54;102814.72;6097356;23;20416;-67
2024/02/18 02:21:46;;;;;;;1.30;0.90;;;;;;;11.47;68.96;102816.31;6097649;23;20395;-66
2024/02/18 02:24:16;;;;;;;1.60;0.73;;;;;;;10.96;65.61;102819.00;6097483;23;20416;-66
2024/02/18 02:26:49;;;;;;;5.97;1.20;;;;;;;12.05;68.56;102812.84;6098083;23;20451;-67
2024/02/18 02:29:21;;;;;;;1.00;0.80;;;;;;;12.09;62.67;102806.06;6097973;23;20466;-67
2024/02/18 02:31:52;;;;;;;0.90;0.57;;;;;;;11.90;65.20;102809.06;6099161;23;20837;-67
2024/02/18 02:34:26;;;;;;;0.80;0.60;;;;;;;11.12;67.57;102813.72;6099560;23;20375;-68
2024/02/18 02:36:55;;;;;;;4.07;0.77;;;;;;;10.11;65.37;102806.03;6099547;23;20844;-65
2024/02/18 02:39:24;;;;;;;1.43;0.90;;;;;;;9.87;67.37;102810.19;6099459;23;20382;-66
2024/02/18 02:41:55;;;;;;;1.33;0.70;;;;;;;10.05;66.92;102804.78;6099548;23;20652;-68
2024/02/18 02:44:25;;;;;;;2.60;1.17;;;;;;;10.16;67.98;102810.03;6098107;23;20376;-67
2024/02/18 02:46:55;;;;;;;2.23;1.10;;;;;;;9.55;67.91;102805.19;6097020;23;20455;-66
2024/02/18 02:49:24;;;;;;;0.80;0.60;;;;;;;9.31;71.31;102798.59;6098319;23;20423;-66
2024/02/18 02:51:53;;;;;;;2.10;0.90;;;;;;;9.73;73.93;102789.00;6100316;23;20389;-66
2024/02/18 02:54:23;;;;;;;3.73;0.67;;;;;;;9.74;69.11;102790.72;6096275;23;20883;-66
2024/02/18 02:56:52;;;;;;;0.95;0.60;;;;;;;9.78;70.89;102789.41;6096561;23;20422;-67
2024/02/18 02:59:21;;;;;;;2.00;0.80;;;;;;;10.21;71.87;102790.63;6096044;23;20187;-67
2024/02/18 03:01:52;;;;;;;1.08;0.60;;;;;;;10.64;72.97;102787.97;6096215;23;20372;-67
2024/02/18 03:04:21;;;;;;;1.57;0.83;;;;;;;11.11;64.55;102803.88;6071363;23;20164;-67
2024/02/18 03:06:50;;;;;;;1.27;0.90;;;;;;;10.78;67.09;102800.94;6096259;23;20388;-67
2024/02/18 03:09:19;;;;;;;3.37;0.80;;;;;;;10.18;64.92;102796.31;6096687;23;20409;-66
2024/02/18 03:11:49;;;;;;;1.20;0.97;;;;;;;10.07;69.85;102788.41;6098805;23;20419;-67
2024/02/18 03:14:18;;;;;;;1.87;1.00;;;;;;;10.63;67.38;102780.84;6097530;23;20378;-66
2024/02/18 03:16:47;;;;;;;0.90;0.60;;;;;;;9.50;66.79;102782.31;6097871;23;20419;-66
2024/02/18 03:19:17;;;;;;;0.90;0.60;;;;;;;9.68;68.66;102777.84;6097836;23;20417;-67
2024/02/18 03:21:47;;;;;;;1.23;0.70;;;;;;;9.30;69.83;102776.13;6097614;23;20442;-66
2024/02/18 03:24:16;;;;;;;1.23;0.98;;;;;;;9.12;70.54;102770.66;6097881;23;20899;-67
2024/02/18 03:26:46;;;;;;;1.38;0.60;;;;;;;9.40;70.77;102782.34;6097691;23;20168;-67
2024/02/18 03:29:15;;;;;;;3.28;1.50;;;;;;;9.37;70.88;102774.56;6097520;23;20202;-66
2024/02/18 03:31:44;;;;;;;1.70;0.70;;;;;;;8.95;71.27;102768.75;6072259;23;20171;-65
2024/02/18 03:34:13;;;;;;;1.00;0.80;;;;;;;8.18;71.22;102774.16;6098114;23;20167;-66
2024/02/18 03:36:45;;;;;;;0.90;0.68;;;;;;;7.52;74.62;102772.19;6097631;23;20187;-65
2024/02/18 03:39:14;;;;;;;2.15;1.13;;;;;;;8.04;74.20;102757.53;6097773;23;20187;-66
2024/02/18 03:41:43;;;;;;;1.73;0.95;;;;;;;8.23;76.73;102761.09;6098089;23;20168;-66
2024/02/18 03:44:13;;;;;;;1.23;0.60;;;;;;;8.66;74.20;102765.25;6097919;23;20155;-66
2024/02/18 03:46:43;;;;;;;1.42;1.10;;;;;;;8.53;73.42;102765.53;6097573;23;20159;-65
2024/02/18 03:49:13;;;;;;;1.00;0.50;;;;;;;8.74;74.25;102770.75;6097288;23;20198;-64
2024/02/18 03:51:44;;;;;;;0.90;0.60;;;;;;;8.64;75.21;102769.94;6097584;23;20210;-65
2024/02/18 03:54:13;;;;;;;1.55;1.33;;;;;;;8.21;74.10;102771.19;6097808;23;20163;-66
2024/02/18 03:56:43;;;;;;;0.80;0.50;;;;;;;8.04;76.11;102763.78;6097259;23;20250;-67
2024/02/18 03:59:15;;;;;;;3.08;0.65;;;;;;;8.05;76.07;102760.09;6096959;23;20535;-67
2024/02/18 04:02:02;;;;;;;1.23;0.73;;;;;;;8.37;78.27;102764.41;6098066;23;20152;-66
2024/02/18 04:04:32;;;;;;;0.90;0.60;;;;;;;8.54;76.54;102763.69;6098001;23;20207;-66
2024/02/18 04:07:02;;;;;;;1.80;1.15;;;;;;;8.55;76.75;102760.84;6097615;23;20164;-66
2024/02/18 04:09:32;;;;;;;1.08;0.93;;;;;;;8.49;74.78;102761.41;6097981;23;20188;-66
2024/02/18 04:12:03;;;;;;;0.80;0.50;;;;;;;8.06;76.18;102766.34;6097693;23;20151;-66
2024/02/18 04:14:32;;;;;;;1.08;0.98;;;;;;;7.51;77.79;102773.16;6097434;23;20622;-66
2024/02/18 04:17:03;;;;;;;1.23;1.13;;;;;;;8.12;79.56;102772.06;6097312;23;20183;-67
2024/02/18 04:19:32;;;;;;;1.65;0.60;;;;;;;8.33;76.35;102763.00;6097527;23;20195;-66
2024/02/18 04:22:03;;;;;;;1.20;0.77;;;;;;;8.45;77.33;102751.91;6097516;23;20167;-67
2024/02/18 04:24:32;;;;;;;1.20;0.70;;;;;;;8.20;78.77;102755.16;6097332;23;20159;-67
2024/02/18 04:27:02;;;;;;;1.10;0.60;;;;;;;8.11;79.85;102762.25;6096764;23;20160;-66
2024/02/18 04:29:31;;;;;;;1.90;1.52;;;;;;;8.55;78.03;102754.59;6097579;23;20530;-67
2024/02/18 04:32:00;;;;;;;1.25;1.05;;;;;;;8.06;76.47;102732.16;6097255;23;20156;-66
2024/02/18 04:34:29;;;;;;;0.90;0.60;;;;;;;7.72;79.49;102734.38;6097411;23;20183;-65
2024/02/18 04:36:58;;;;;;;2.45;1.23;;;;;;;7.89;77.53;102734.69;6097194;23;20263;-63
2024/02/18 04:39:29;;;;;;;0.90;0.70;;;;;;;7.41;79.42;102736.28;6097625;23;20190;-66
2024/02/18 04:41:58;;;;;;;0.88;0.70;;;;;;;8.31;80.56;102727.22;6099147;23;20156;-63
2024/02/18 04:44:27;;;;;;;1.45;1.05;;;;;;;8.25;77.68;102725.91;6098574;23;20208;-67
2024/02/18 04:46:56;;;;;;;0.88;0.50;;;;;;;8.75;78.44;102728.44;6097905;23;20175;-65
2024/02/18 04:49:25;;;;;;;2.25;0.70;;;;;;;9.19;75.25;102737.66;6097467;23;20203;-66
2024/02/18 04:51:54;;;;;;;1.88;0.80;;;;;;;8.97;77.32;102747.81;6097841;23;20168;-66
2024/02/18 04:54:24;;;;;;;0.90;0.60;;;;;;;8.58;76.42;102755.16;6098365;23;20227;-67
2024/02/18 04:56:54;;;;;;;3.78;0.90;;;;;;;8.60;77.00;102746.94;6098421;23;20187;-66
2024/02/18 04:59:23;;;;;;;1.95;0.85;;;;;;;8.46;77.66;102742.84;6071891;23;20560;-66
2024/02/18 05:01:53;;;;;;;1.55;0.80;;;;;;;8.05;76.77;102741.22;6097405;23;20496;-66
2024/02/18 05:04:29;;;;;;;0.90;0.70;;;;;;;8.10;79.44;102748.91;6097185;23;20219;-63
2024/02/18 05:06:58;;;;;;;1.00;0.80;;;;;;;8.47;82.27;102755.31;6097375;23;20612;-65
2024/02/18 05:09:28;;;;;;;5.15;0.90;;;;;;;9.11;76.75;102750.06;6097133;23;20183;-67
2024/02/18 05:11:59;;;;;;;1.45;1.35;;;;;;;9.46;78.12;102756.59;6097302;23;20155;-67
2024/02/18 05:14:28;;;;;;;0.90;0.50;;;;;;;9.03;76.62;102759.91;6097788;23;20156;-67
2024/02/18 05:16:57;;;;;;;0.80;0.50;;;;;;;8.51;74.61;102754.06;6097335;23;20496;-67
2024/02/18 05:19:29;;;;;;;1.58;0.80;;;;;;;8.50;76.67;102749.63;6098098;23;20218;-67
2024/02/18 05:21:58;;;;;;;3.28;1.08;;;;;;;8.38;77.88;102753.47;6097020;23;20466;-65
2024/02/18 05:24:28;;;;;;;1.02;0.55;;;;;;;8.78;78.91;102755.97;6097545;23;20573;-68
2024/02/18 05:26:58;;;;;;;1.02;0.70;;;;;;;8.83;75.90;102753.69;6097081;23;20242;-67
2024/02/18 05:29:27;;;;;;;1.30;0.60;;;;;;;8.32;76.72;102750.50;6097602;23;20198;-67
2024/02/18 05:31:57;;;;;;;2.25;1.08;;;;;;;8.48;78.44;102742.66;6099706;23;20566;-66
2024/02/18 05:34:26;;;;;;;3.72;0.80;;;;;;;9.37;79.08;102750.25;6098842;23;20168;-66
2024/02/18 05:36:56;;;;;;;0.80;0.60;;;;;;;8.25;71.88;102752.88;6099053;23;20174;-67
2024/02/18 05:39:26;;;;;;;0.90;0.50;;;;;;;7.74;76.83;102740.50;6098115;23;20712;-66
2024/02/18 05:41:55;;;;;;;0.80;0.50;;;;;;;7.15;81.02;102723.44;6071783;23;20179;-66
2024/02/18 05:44:25;;;;;;;0.90;0.60;;;;;;;7.97;81.06;102737.53;6097469;23;20164;-66
2024/02/18 05:46:55;;;;;;;0.80;0.50;;;;;;;8.27;77.80;102740.97;6097984;23;20143;-67
2024/02/18 05:49:24;;;;;;;1.17;0.65;;;;;;;9.02;77.68;102734.72;6096729;23;20482;-66
2024/02/18 05:51:54;;;;;;;0.90;0.60;;;;;;;9.18;71.97;102730.56;6097314;23;20176;-66
2024/02/18 05:54:23;;;;;;;0.90;0.70;;;;;;;8.83;72.87;102737.50;6097256;23;20238;-66
2024/02/18 05:56:53;;;;;;;1.75;0.80;;;;;;;8.36;75.67;102728.50;6097230;23;20167;-66
2024/02/18 05:59:22;;;;;;;1.13;0.70;;;;;;;8.83;75.21;102732.09;6096946;23;20242;-68
2024/02/18 06:01:52;;;;;;;0.90;0.70;;;;;;;9.07;75.93;102729.75;6097290;23;20246;-65
2024/02/18 06:04:22;;;;;;;1.30;0.60;;;;;;;9.19;74.77;102732.28;6097053;23;20152;-65
2024/02/18 06:06:51;;;;;;;0.90;0.60;;;;;;;9.35;72.65;102727.06;6097053;23;20574;-66
2024/02/18 06:09:20;;;;;;;2.08;0.95;;;;;;;8.86;72.31;102725.56;6097559;23;20212;-66
2024/02/18 06:11:49;;;;;;;1.73;1.20;;;;;;;8.82;72.28;102724.13;6097369;23;20167;-66
2024/02/18 06:14:19;;;;;;;2.40;1.17;;;;;;;9.26;74.08;102725.25;6098008;23;20168;-68
2024/02/18 06:16:48;;;;;;;0.90;0.60;;;;;;;9.14;72.86;102722.75;6073656;23;20171;-66
2024/02/18 06:19:19;;;;;;;0.90;0.55;;;;;;;9.08;73.92;102727.91;6098620;23;20211;-67
2024/02/18 06:21:49;;;;;;;2.47;0.80;;;;;;;9.31;73.09;102728.34;6098758;23;20152;-67
2024/02/18 06:24:18;;;;;;;3.92;0.85;;;;;;;8.83;74.03;102732.09;6099511;23;20210;-67
2024/02/18 06:26:47;;;;;;;4.63;0.82;;;;;;;8.68;75.17;102723.59;6099831;23;20228;-66
2024/02/18 06:29:16;;;;;;;1.23;0.90;;;;;;;8.27;74.52;102730.19;6099418;23;20259;-66
2024/02/18 06:31:45;;;;;;;1.00;0.70;;;;;;;8.46;76.82;102729.34;6099676;23;20224;-65
2024/02/18 06:34:14;;;;;;;0.90;0.63;;;;;;;8.88;75.15;102731.66;6099037;23;20544;-67
2024/02/18 06:36:45;;;;;;;14.65;1.23;;;;;;;8.52;73.72;102734.13;6099009;23;20164;-68
2024/02/18 06:39:15;;;;;;;1.10;0.75;;;;;;;7.77;75.80;102725.88;6098960;23;20199;-67
2024/02/18 06:41:44;;;;;;;1.20;0.65;;;;;;;8.19;76.11;102711.13;6098976;23;20151;-67
2024/02/18 06:44:13;;;;;;;1.98;1.73;;;;;;;7.61;80.80;102721.03;6099680;23;20171;-67
2024/02/18 06:46:42;;;;;;;2.60;1.05;;;;;;;7.48;81.46;102712.34;6098749;23;20171;-66
2024/02/18 06:49:11;;;;;;;1.73;1.50;;;;;;;7.96;79.72;102720.50;6098181;23;20195;-67
2024/02/18 06:51:40;;;;;;;4.10;1.20;;;;;;;8.16;78.70;102716.81;6100467;23;20505;-68
2024/02/18 06:54:11;;;;;;;1.65;0.90;;;;;;;8.79;80.31;102709.09;6099710;23;20147;-68
2024/02/18 06:56:40;;;;;;;1.20;0.63;;;;;;;8.35;76.17;102715.13;6099863;23;20597;-67
2024/02/18 06:59:09;;;;;;;2.70;1.10;;;;;;;8.32;79.17;102710.03;6099433;23;20201;-66
2024/02/18 07:01:38;;;;;;;0.90;0.60;;;;;;;8.58;77.00;102711.97;6099922;23;20156;-67
2024/02/18 07:04:07;;;;;;;0.80;0.50;;;;;;;8.42;76.68;102714.44;6100096;23;20468;-67
2024/02/18 07:06:38;;;;;;;0.80;0.50;;;;;;;8.45;77.41;102710.59;6100583;23;20176;-68
2024/02/18 07:09:07;;;;;;;3.13;1.58;;;;;;;8.12;78.38;102704.63;6099811;23;20572;-66
2024/02/18 07:11:38;;;;;;;1.52;1.15;;;;;;;7.97;81.18;102689.88;6099711;23;20164;-66
2024/02/18 07:14:07;;;;;;;3.00;1.15;;;;;;;9.25;78.96;102694.69;6075352;23;20226;-67
2024/02/18 07:16:36;;;;;;;1.60;0.88;;;;;;;8.69;74.64;102697.47;6101522;23;20547;-67
2024/02/18 07:19:07;;;;;;;1.55;0.70;;;;;;;8.29;77.50;102695.84;6101213;23;20187;-66
2024/02/18 07:21:37;;;;;;;1.42;0.95;;;;;;;8.07;79.94;102688.03;6100142;23;20156;-66
2024/02/18 07:24:09;;;;;;;0.80;0.57;;;;;;;8.11;76.85;102684.03;6100078;23;20159;-67
2024/02/18 07:26:40;;;;;;;0.90;0.80;;;;;;;8.08;77.86;102676.25;6100962;23;20156;-67
2024/02/18 07:29:09;;;;;;;2.28;1.30;;;;;;;8.17;79.32;102674.53;6100431;23;20219;-67
2024/02/18 07:31:38;;;;;;;1.30;1.05;;;;;;;8.25;76.83;102672.81;6101046;23;20152;-66
2024/02/18 07:34:07;;;;;;;1.45;1.23;;;;;;;7.95;80.78;102664.88;6102095;23;20179;-68
2024/02/18 07:36:37;;;;;;;1.40;0.73;;;;;;;8.01;79.63;102667.00;6103472;23;20167;-66
2024/02/18 07:39:07;;;;;;;2.60;1.25;;;;;;;8.00;78.22;102664.44;6102413;23;20187;-68
2024/02/18 07:41:36;;;;;;;1.55;1.45;;;;;;;8.07;80.12;102658.34;6100883;23;20155;-65
2024/02/18 07:44:07;;;;;;;2.45;0.60;;;;;;;8.19;77.51;102650.94;6099606;23;20578;-66
2024/02/18 07:46:37;;;;;;;2.75;0.82;;;;;;;8.40;75.38;102648.13;6099813;23;20230;-66
2024/02/18 07:49:07;;;;;;;4.20;1.25;;;;;;;8.86;78.58;102650.78;6100046;23;20242;-68
2024/02/18 07:51:37;;;;;;;1.45;0.90;;;;;;;8.51;75.89;102651.50;6102170;23;20163;-66
2024/02/18 07:54:06;;;;;;;1.20;1.08;;;;;;;8.74;73.21;102652.00;6102157;23;20180;-67
2024/02/18 07:56:42;;;;;;;2.40;0.85;;;;;;;9.30;73.60;102665.34;6100009;23;20210;-68
2024/02/18 07:59:38;;;;;;;0.90;0.70;;;;;;;8.78;71.40;102647.13;6097342;23;20322;-65
2024/02/18 08:02:07;;;;;;;1.65;0.98;;;;;;;8.90;72.44;102643.28;6097491;23;20191;-66
2024/02/18 08:04:36;;;;;;;1.45;0.98;;;;;;;9.05;73.58;102645.31;6097965;23;20158;-67
2024/02/18 08:07:06;;;;;;;1.63;0.77;;;;;;;9.20;72.63;102636.72;6097707;23;20171;-67
2024/02/18 08:09:35;;;;;;;1.75;0.80;;;;;;;9.47;71.00;102644.78;6097256;23;20180;-67
2024/02/18 08:12:04;;;;;;;6.13;0.80;;;;;;;9.92;69.67;102640.16;6096966;23;20164;-67
2024/02/18 08:14:33;;;;;;;1.00;0.70;;;;;;;9.02;69.70;102626.72;6097287;23;20238;-66
2024/02/18 08:17:04;;;;;;;1.00;0.80;;;;;;;8.70;69.62;102629.00;6096775;23;20656;-64
2024/02/18 08:19:33;;;;;;;0.90;0.60;;;;;;;8.49;71.41;102620.25;6096785;23;20199;-67
2024/02/18 08:22:03;;;;;;;1.65;0.80;;;;;;;8.26;73.35;102615.19;6097716;23;20183;-66
2024/02/18 08:24:32;;;;;;;2.75;1.73;;;;;;;7.91;72.37;102619.47;6102571;23;20168;-67
2024/02/18 08:27:01;;;;;;;2.05;0.98;;;;;;;8.03;73.47;102603.03;6101457;23;20152;-65
2024/02/18 08:29:30;;;;;;;1.38;1.27;;;;;;;8.06;72.81;102600.03;6100889;23;20258;-67
2024/02/18 08:32:02;;;;;;;1.88;0.80;;;;;;;7.67;74.17;102593.81;6099911;23;20171;-65
2024/02/18 08:34:32;;;;;;;1.13;0.65;;;;;;;8.15;74.28;102607.25;6100070;23;20156;-66
2024/02/18 08:37:03;;;;;;;4.10;0.77;;;;;;;8.08;72.86;102584.56;6096635;23;20152;-67
2024/02/18 08:39:32;;;;;;;2.38;1.73;;;;;;;8.24;71.79;102590.19;6096771;23;20187;-67
2024/02/18 08:42:01;;;;;;;4.93;1.42;;;;;;;8.32;72.79;102580.56;6098956;23;20556;-66
2024/02/18 08:44:30;;;;;;;1.80;1.27;;;;;;;8.27;71.62;102578.28;6097861;23;20227;-66
2024/02/18 08:46:59;;;;;;;0.88;0.65;;;;;;;8.04;73.79;102572.34;6097760;23;20664;-66
2024/02/18 08:49:28;;;;;;;3.35;0.93;;;;;;;8.10;71.92;102573.63;6096888;23;20191;-65
2024/02/18 08:51:59;;;;;;;1.20;1.10;;;;;;;8.27;73.43;102565.63;6095994;23;20211;-66
2024/02/18 08:54:29;;;;;;;1.42;1.05;;;;;;;8.02;72.93;102560.00;6096209;23;20159;-65
2024/02/18 08:56:58;;;;;;;2.28;0.80;;;;;;;8.43;74.00;102553.38;6096387;23;20183;-66
2024/02/18 08:59:27;;;;;;;2.55;1.10;;;;;;;9.33;70.46;102542.63;6096153;23;20199;-63
2024/02/18 09:01:57;;;;;;;5.13;2.22;;;;;;;9.46;68.69;102556.59;6097041;23;20178;-67
2024/02/18 09:04:31;;;;;;;2.03;0.95;;;;;;;9.54;67.73;102548.56;6096917;23;20151;-66
2024/02/18 09:07:02;;;;;;;1.05;0.95;;;;;;;9.07;68.69;102537.97;6096986;23;20175;-69
2024/02/18 09:09:31;;;;;;;7.07;1.35;;;;;;;9.06;70.73;102544.38;6096899;23;20254;-66
2024/02/18 09:12:01;;;;;;;1.10;0.80;;;;;;;9.20;70.26;102545.69;6096677;23;20174;-66
2024/02/18 09:14:30;;;;;;;2.07;0.97;;;;;;;9.25;70.70;102538.00;6071148;23;20168;-66
2024/02/18 09:16:58;;;;;;;0.90;0.70;;;;;;;9.44;70.16;102537.00;6097258;23;20445;-64
2024/02/18 09:19:27;;;;;;;0.88;0.60;;;;;;;9.27;69.41;102536.00;6097369;23;20188;-66
2024/02/18 09:21:57;;;;;;;1.30;1.02;;;;;;;9.68;72.58;102529.13;6073485;23;20247;-66
2024/02/18 09:24:28;;;;;;;2.08;1.05;;;;;;;9.79;69.80;102520.72;6097863;23;20226;-66
2024/02/18 09:26:57;;;;;;;1.13;0.60;;;;;;;9.55;68.90;102520.53;6072068;23;20187;-65
2024/02/18 09:29:29;;;;;;;1.05;0.70;;;;;;;9.24;70.13;102513.84;6097042;23;20266;-67
2024/02/18 09:31:59;;;;;;;1.27;1.08;;;;;;;8.95;70.74;102520.31;6096754;23;20152;-65
2024/02/18 09:34:28;;;;;;;1.17;0.82;;;;;;;8.77;73.54;102513.16;6096696;23;20616;-66
2024/02/18 09:36:57;;;;;;;1.20;0.90;;;;;;;9.14;74.33;102501.28;6096670;23;20222;-68
2024/02/18 09:39:28;;;;;;;1.38;1.08;;;;;;;8.91;72.34;102508.09;6096320;23;20520;-67
2024/02/18 09:41:59;;;;;;;3.27;0.90;;;;;;;9.10;71.88;102509.84;6096819;23;20152;-66
2024/02/18 09:44:29;;;;;;;1.80;1.70;;;;;;;8.80;73.65;102511.03;6096816;23;20376;-65
2024/02/18 09:47:01;;;;;;;10.95;1.42;;;;;;;9.23;75.11;102502.19;6096422;23;20504;-66
2024/02/18 09:49:30;;;;;;;1.33;0.93;;;;;;;8.93;72.10;102506.09;6096323;23;20188;-65
2024/02/18 09:52:00;;;;;;;4.10;1.55;;;;;;;8.82;73.63;102510.84;6095832;23;20152;-64
2024/02/18 09:54:34;;;;;;;1.48;0.80;;;;;;;8.76;75.49;102506.94;6096868;23;20156;-66
2024/02/18 10:00:37;;;;;;;2.90;1.50;;;;;;;8.89;74.28;102506.56;6096741;23;20238;-67
2024/02/18 10:03:08;;;;;;;3.08;1.85;;;;;;;8.97;75.27;102502.09;6096895;23;20151;-68
2024/02/18 10:05:37;;;;;;;1.38;1.27;;;;;;;9.31;76.16;102493.31;6096768;23;20203;-68
2024/02/18 10:08:07;;;;;;;1.25;1.00;;;;;;;9.60;72.37;102483.06;6096440;23;20262;-67
2024/02/18 10:10:38;;;;;;;1.35;0.98;;;;;;;9.35;72.05;102490.13;6096236;23;20168;-67
2024/02/18 10:13:10;;;;;;;4.00;1.50;;;;;;;9.29;72.52;102487.22;6096506;23;20152;-67
2024/02/18 10:15:39;;;;;;;0.90;0.70;;;;;;;9.92;72.87;102477.06;6071040;23;20159;-67
2024/02/18 10:18:09;;;;;;;0.90;0.70;;;;;;;9.66;69.52;102479.75;6096086;23;20390;-69
2024/02/18 10:20:40;;;;;;;1.83;0.90;;;;;;;9.75;71.18;102476.09;6096990;23;20784;-67
2024/02/18 10:23:11;;;;;;;1.83;1.27;;;;;;;10.01;70.09;102466.13;6096169;23;20755;-67
2024/02/18 10:25:41;;;;;;;1.30;0.90;;;;;;;10.65;71.09;102464.72;6095797;23;20425;-66
2024/02/18 10:28:11;;;;;;;1.93;1.60;;;;;;;10.78;68.31;102462.41;6096574;23;20382;-66
2024/02/18 10:30:40;;;;;;;2.20;0.70;;;;;;;10.45;66.88;102458.78;6097988;23;20413;-68
2024/02/18 10:33:09;;;;;;;0.80;0.50;;;;;;;9.94;69.94;102456.09;6096020;23;20374;-67
2024/02/18 10:35:38;;;;;;;1.23;0.87;;;;;;;10.70;68.18;102451.53;6096474;23;20849;-67
2024/02/18 10:38:13;;;;;;;4.00;1.13;;;;;;;10.50;68.42;102450.16;6095625;23;20500;-66
2024/02/18 10:40:51;;;;;;;1.33;1.20;;;;;;;10.26;69.34;102447.34;6096468;23;20411;-65
2024/02/18 10:43:23;;;;;;;1.60;0.97;;;;;;;10.79;69.75;102450.56;6096266;23;20485;-67
2024/02/18 10:45:53;;;;;;;6.40;1.23;;;;;;;10.82;66.89;102444.81;6096002;23;20384;-67
2024/02/18 10:48:26;;;;;;;2.07;1.87;;;;;;;10.53;66.04;102439.00;6070210;23;20826;-67
2024/02/18 10:50:56;;;;;;;1.23;0.90;;;;;;;11.06;66.01;102435.03;6096032;23;20374;-67
2024/02/18 10:53:33;;;;;;;1.07;0.90;;;;;;;10.39;66.56;102429.63;6096089;23;20351;-67
2024/02/18 10:56:14;;;;;;;1.83;1.03;;;;;;;10.81;65.69;102420.59;6095992;23;20355;-67
2024/02/18 10:58:50;;;;;;;1.17;0.80;;;;;;;10.78;67.76;102427.22;6096227;23;20415;-66
2024/02/18 11:01:24;;;;;;;3.47;1.00;;;;;;;11.17;65.35;102416.59;6096154;23;20472;-66
2024/02/18 11:03:59;;;;;;;1.47;0.97;;;;;;;11.52;63.50;102409.94;6096422;23;20351;-66
2024/02/18 11:06:30;;;;;;;1.70;1.00;;;;;;;11.66;64.13;102397.56;6096101;23;20375;-67
2024/02/18 11:09:01;;;;;;;2.83;1.07;;;;;;;11.82;63.60;102407.53;6095885;23;20417;-66
2024/02/18 11:11:33;;;;;;;7.03;1.90;;;;;;;11.13;63.95;102392.72;6096160;23;20435;-67
2024/02/18 11:14:04;;;;;;;1.10;0.90;;;;;;;11.12;65.10;102393.72;6096666;23;20429;-66
2024/02/18 11:16:35;;;;;;;1.00;0.70;;;;;;;11.18;65.94;102382.22;6096481;23;20894;-67
2024/02/18 11:19:06;;;;;;;1.17;1.07;;;;;;;12.01;63.23;102388.13;6096289;23;20445;-67
2024/02/18 11:21:37;;;;;;;1.83;1.73;;;;;;;12.39;62.94;102376.41;6070763;23;20924;-67
2024/02/18 11:24:08;;;;;;;1.67;1.07;;;;;;;12.16;61.42;102375.53;6095843;23;20358;-67
2024/02/18 11:26:39;;;;;;;1.10;0.90;;;;;;;12.53;64.84;102361.25;6095987;23;20406;-67
2024/02/18 11:29:08;;;;;;;1.40;1.30;;;;;;;12.56;61.69;102361.75;6096091;23;20882;-67
2024/02/18 11:31:37;;;;;;;1.20;0.70;;;;;;;12.56;61.76;102363.59;6096061;23;20347;-65
2024/02/18 11:34:07;;;;;;;4.10;1.83;;;;;;;12.01;62.30;102350.16;6096292;23;20357;-67
2024/02/18 11:36:36;;;;;;;1.00;0.80;;;;;;;11.76;64.28;102346.72;6096030;23;20687;-67
2024/02/18 11:39:09;;;;;;;1.50;1.10;;;;;;;11.56;65.15;102338.09;6097386;23;20792;-66
2024/02/18 11:41:39;;;;;;;2.93;1.20;;;;;;;11.84;67.46;102332.25;6097717;23;20758;-67
2024/02/18 11:44:10;;;;;;;3.90;1.57;;;;;;;12.17;63.62;102331.09;6098081;23;20358;-68
2024/02/18 11:46:41;;;;;;;2.07;1.53;;;;;;;12.16;65.22;102323.97;6097751;23;20357;-67
2024/02/18 11:49:11;;;;;;;2.30;1.50;;;;;;;12.33;64.58;102316.59;6097585;23;20413;-67